createdAt,value
2019-03-17T00:02:25.277Z,65.17
2019-03-17T00:04:53.859Z,62.10
2019-03-17T00:07:22.428Z,61.94
2019-03-17T00:09:50.994Z,61.92
2019-03-17T00:12:19.635Z,61.81
2019-03-17T00:14:48.184Z,62.77
2019-03-17T00:17:16.764Z,61.89
2019-03-17T00:19:46.254Z,62.84
2019-03-17T00:22:14.950Z,62.96
2019-03-17T00:24:43.658Z,62.77
2019-03-17T00:27:12.270Z,62.00
2019-03-17T00:29:40.810Z,62.22
2019-03-17T00:32:09.453Z,62.97
2019-03-17T00:34:44.052Z,63.02
2019-03-17T00:37:08.264Z,63.53
2019-03-17T00:39:37.203Z,63.47
2019-03-17T00:42:05.907Z,62.15
2019-03-17T00:44:34.495Z,62.03
2019-03-17T00:47:03.088Z,62.10
2019-03-17T00:49:31.768Z,62.55
2019-03-17T00:52:00.219Z,62.59
2019-03-17T00:54:28.833Z,62.46
2019-03-17T00:56:57.428Z,61.97
2019-03-17T00:59:26.037Z,62.34
2019-03-17T01:01:54.547Z,62.31
2019-03-17T01:04:23.172Z,61.99
2019-03-17T01:06:51.740Z,62.83
2019-03-17T01:09:20.588Z,62.64
2019-03-17T01:11:49.161Z,62.83
2019-03-17T01:14:17.737Z,64.17
2019-03-17T01:16:46.383Z,62.14
2019-03-17T01:19:14.994Z,61.79
2019-03-17T01:21:43.582Z,62.47
2019-03-17T01:24:12.127Z,62.89
2019-03-17T01:26:40.741Z,63.42
2019-03-17T01:29:09.324Z,63.23
2019-03-17T01:31:37.893Z,62.78
2019-03-17T01:34:06.335Z,62.89
2019-03-17T01:36:34.949Z,62.48
2019-03-17T01:39:04.019Z,62.77
2019-03-17T01:41:32.585Z,63.07
2019-03-17T01:44:01.121Z,62.69
2019-03-17T01:46:29.699Z,63.29
2019-03-17T01:48:58.879Z,65.04
2019-03-17T01:51:27.684Z,63.87
2019-03-17T01:53:56.262Z,62.53
2019-03-17T01:56:24.791Z,62.50
2019-03-17T01:58:53.269Z,62.60
2019-03-17T02:01:21.919Z,62.42
2019-03-17T02:03:50.569Z,62.76
2019-03-17T02:06:18.972Z,62.63
2019-03-17T02:08:47.593Z,62.77
2019-03-17T02:11:16.749Z,62.77
2019-03-17T02:13:45.396Z,62.80
2019-03-17T02:16:13.984Z,62.79
2019-03-17T02:18:42.538Z,62.04
2019-03-17T02:21:11.198Z,63.30
2019-03-17T02:23:39.775Z,64.04
2019-03-17T02:26:08.322Z,63.59
2019-03-17T02:28:37.621Z,62.96
2019-03-17T02:31:06.223Z,61.98
2019-03-17T02:33:34.754Z,62.67
2019-03-17T02:36:03.362Z,62.89
2019-03-17T02:38:31.933Z,63.33
2019-03-17T02:41:00.476Z,63.68
2019-03-17T02:43:29.003Z,63.02
2019-03-17T02:45:57.554Z,63.71
2019-03-17T02:48:26.282Z,63.33
2019-03-17T02:50:54.875Z,63.17
2019-03-17T02:53:23.399Z,63.23
2019-03-17T02:55:52.061Z,63.79
2019-03-17T02:58:20.653Z,63.96
2019-03-17T03:00:49.193Z,64.80
2019-03-17T03:03:17.702Z,63.13
2019-03-17T03:05:55.032Z,62.72
2019-03-17T03:08:17.759Z,62.77
2019-03-17T03:10:46.434Z,62.17
2019-03-17T03:13:14.995Z,61.66
2019-03-17T03:15:43.569Z,62.13
2019-03-17T03:18:12.142Z,61.66
2019-03-17T03:20:40.717Z,61.11
2019-03-17T03:23:09.389Z,61.06
2019-03-17T03:25:37.953Z,60.38
2019-03-17T03:28:06.589Z,61.75
2019-03-17T03:30:35.185Z,61.87
2019-03-17T03:33:03.797Z,62.67
2019-03-17T03:35:32.417Z,63.81
2019-03-17T03:38:01.072Z,62.27
2019-03-17T03:40:29.845Z,62.28
2019-03-17T03:42:59.027Z,63.46
2019-03-17T03:45:27.652Z,63.25
2019-03-17T03:47:57.206Z,62.79
2019-03-17T03:50:25.750Z,63.64
2019-03-17T03:52:54.348Z,64.14
2019-03-17T03:55:23.094Z,64.68
2019-03-17T03:57:52.724Z,65.65
2019-03-17T04:00:21.427Z,65.68
2019-03-17T04:02:50.029Z,65.47
2019-03-17T04:05:18.614Z,66.48
2019-03-17T04:07:47.322Z,66.87
2019-03-17T04:10:15.913Z,67.18
2019-03-17T04:12:44.540Z,67.32
2019-03-17T04:15:13.221Z,66.91
2019-03-17T04:17:42.034Z,67.06
2019-03-17T04:20:12.227Z,67.57
2019-03-17T04:22:40.873Z,68.51
2019-03-17T04:25:09.587Z,69.36
2019-03-17T04:27:38.207Z,69.53
2019-03-17T04:30:09.623Z,68.72
2019-03-17T04:32:38.054Z,69.05
2019-03-17T04:35:07.664Z,69.03
2019-03-17T04:37:36.324Z,69.38
2019-03-17T04:40:06.620Z,69.59
2019-03-17T04:42:35.255Z,70.30
2019-03-17T04:45:04.065Z,70.77
2019-03-17T04:47:32.609Z,72.36
2019-03-17T04:50:01.081Z,69.15
2019-03-17T04:52:29.814Z,69.19
2019-03-17T04:54:58.367Z,69.39
2019-03-17T04:57:26.947Z,69.87
2019-03-17T04:59:55.459Z,70.61
2019-03-17T05:02:24.044Z,70.19
2019-03-17T05:04:52.549Z,70.34
2019-03-17T05:07:21.192Z,71.15
2019-03-17T05:09:49.818Z,71.38
2019-03-17T05:12:18.407Z,71.59
2019-03-17T05:14:46.943Z,71.79
2019-03-17T05:17:15.523Z,71.55
2019-03-17T05:19:44.079Z,72.00
2019-03-17T05:22:12.642Z,73.23
2019-03-17T05:24:41.196Z,72.28
2019-03-17T05:27:09.739Z,71.96
2019-03-17T05:29:38.188Z,71.69
2019-03-17T05:32:07.708Z,72.72
2019-03-17T05:34:36.256Z,72.74
2019-03-17T05:37:06.671Z,73.33
2019-03-17T05:39:35.202Z,73.41
2019-03-17T05:42:03.806Z,73.51
2019-03-17T05:44:32.430Z,73.52
2019-03-17T05:47:01.053Z,74.65
2019-03-17T05:49:29.547Z,74.64
2019-03-17T05:51:58.006Z,74.75
2019-03-17T05:54:26.649Z,75.30
2019-03-17T05:56:55.231Z,75.92
2019-03-17T05:59:23.860Z,76.47
2019-03-17T06:01:52.450Z,74.24
2019-03-17T06:04:21.390Z,74.27
2019-03-17T06:06:49.947Z,73.89
2019-03-17T06:09:18.417Z,74.47
2019-03-17T06:11:46.926Z,74.39
2019-03-17T06:14:15.700Z,75.04
2019-03-17T06:16:44.436Z,75.30
2019-03-17T06:19:13.030Z,75.29
2019-03-17T06:21:41.722Z,75.72
2019-03-17T06:24:10.336Z,75.87
2019-03-17T06:26:38.821Z,76.01
2019-03-17T06:29:07.400Z,75.87
2019-03-17T06:31:35.968Z,76.28
2019-03-17T06:34:04.746Z,78.80
2019-03-17T06:36:33.264Z,76.41
2019-03-17T06:39:01.897Z,75.75
2019-03-17T06:41:30.430Z,75.25
2019-03-17T06:43:58.962Z,75.61
2019-03-17T06:46:27.416Z,75.59
2019-03-17T06:48:55.937Z,76.02
2019-03-17T06:51:24.528Z,76.34
2019-03-17T06:53:56.716Z,75.89
2019-03-17T06:56:23.455Z,76.25
2019-03-17T06:58:52.152Z,76.32
2019-03-17T07:01:20.735Z,75.71
2019-03-17T07:03:49.235Z,75.91
2019-03-17T07:06:17.923Z,76.73
2019-03-17T07:08:46.514Z,78.24
2019-03-17T07:11:15.117Z,78.83
2019-03-17T07:13:43.725Z,76.57
2019-03-17T07:16:12.193Z,74.92
2019-03-17T07:18:40.788Z,75.34
2019-03-17T07:21:09.253Z,77.54
2019-03-17T07:23:37.858Z,76.25
2019-03-17T07:26:06.795Z,75.47
2019-03-17T07:28:35.339Z,76.09
2019-03-17T07:31:03.930Z,75.39
2019-03-17T07:33:32.540Z,74.87
2019-03-17T07:36:01.135Z,75.55
2019-03-17T07:38:29.687Z,74.37
2019-03-17T07:40:58.625Z,75.24
2019-03-17T07:43:27.238Z,74.81
2019-03-17T07:45:55.914Z,79.19
2019-03-17T07:48:24.557Z,75.43
2019-03-17T07:50:53.222Z,72.91
2019-03-17T07:53:21.763Z,72.62
2019-03-17T07:55:50.499Z,72.85
2019-03-17T07:58:19.671Z,72.80
2019-03-17T08:00:48.481Z,73.36
2019-03-17T08:03:16.992Z,74.70
2019-03-17T08:05:45.619Z,73.52
2019-03-17T08:08:14.204Z,73.80
2019-03-17T08:10:42.861Z,73.90
2019-03-17T08:13:11.563Z,73.22
2019-03-17T08:15:40.052Z,72.97
2019-03-17T08:18:08.682Z,73.14
2019-03-17T08:20:37.702Z,74.63
2019-03-17T08:23:06.381Z,73.98
2019-03-17T08:25:34.840Z,72.86
2019-03-17T08:28:03.349Z,72.10
2019-03-17T08:30:32.066Z,72.30
2019-03-17T08:33:00.607Z,71.72
2019-03-17T08:35:29.147Z,71.81
2019-03-17T08:37:57.742Z,71.29
2019-03-17T08:40:26.368Z,71.14
2019-03-17T08:42:55.442Z,71.14
2019-03-17T08:45:23.981Z,71.28
2019-03-17T08:47:57.724Z,70.63
2019-03-17T08:50:22.718Z,71.04
2019-03-17T08:52:51.164Z,70.42
2019-03-17T08:55:19.701Z,70.22
2019-03-17T08:57:48.134Z,71.92
2019-03-17T09:00:18.810Z,69.67
2019-03-17T09:02:47.355Z,69.05
2019-03-17T09:05:16.040Z,69.04
2019-03-17T09:07:44.623Z,68.87
2019-03-17T09:10:14.551Z,68.50
2019-03-17T09:12:43.138Z,69.25
2019-03-17T09:15:11.831Z,69.61
2019-03-17T09:17:40.437Z,68.66
2019-03-17T09:20:11.356Z,68.71
2019-03-17T09:22:40.010Z,69.28
2019-03-17T09:25:10.394Z,69.44
2019-03-17T09:27:39.420Z,68.87
2019-03-17T09:30:13.507Z,69.36
2019-03-17T09:32:42.178Z,69.65
2019-03-17T09:35:11.376Z,68.35
2019-03-17T09:37:40.027Z,68.11
2019-03-17T09:40:13.220Z,68.13
2019-03-17T09:42:41.808Z,69.20
2019-03-17T09:45:12.037Z,68.19
2019-03-17T09:47:41.280Z,69.24
2019-03-17T09:50:18.230Z,69.79
2019-03-17T09:52:46.934Z,69.53
2019-03-17T09:55:15.454Z,70.02
2019-03-17T09:57:44.143Z,68.35
2019-03-17T10:00:17.763Z,68.81
2019-03-17T10:02:46.346Z,68.56
2019-03-17T10:05:15.000Z,70.17
2019-03-17T10:07:43.733Z,73.25
2019-03-17T10:10:14.825Z,72.22
2019-03-17T10:12:44.151Z,70.43
2019-03-17T10:15:14.531Z,70.35
2019-03-17T10:17:43.246Z,70.61
2019-03-17T10:20:16.130Z,70.84
2019-03-17T10:22:44.733Z,71.27
2019-03-17T10:25:13.606Z,71.05
2019-03-17T10:27:42.181Z,70.32
2019-03-17T10:30:15.904Z,70.70
2019-03-17T10:32:44.551Z,71.13
2019-03-17T10:35:13.179Z,70.81
2019-03-17T10:37:41.834Z,71.26
2019-03-17T10:40:21.506Z,72.16
2019-03-17T10:42:50.468Z,73.14
2019-03-17T10:45:19.149Z,70.67
2019-03-17T10:47:47.662Z,68.55
2019-03-17T10:50:19.878Z,68.66
2019-03-17T10:52:48.519Z,65.77
2019-03-17T10:55:17.130Z,65.68
2019-03-17T10:57:45.773Z,66.07
2019-03-17T11:00:18.690Z,65.45
2019-03-17T11:02:48.065Z,64.95
2019-03-17T11:05:17.071Z,65.82
2019-03-17T11:07:45.717Z,66.34
2019-03-17T11:10:17.261Z,65.48
2019-03-17T11:12:45.891Z,64.84
2019-03-17T11:15:19.547Z,65.86
2019-03-17T11:17:48.153Z,66.09
2019-03-17T11:20:16.848Z,64.51
2019-03-17T11:22:45.663Z,63.22
2019-03-17T11:25:18.098Z,61.93
2019-03-17T11:27:46.736Z,63.42
2019-03-17T11:30:17.200Z,62.83
2019-03-17T11:32:45.934Z,63.33
2019-03-17T11:35:14.891Z,63.29
2019-03-17T11:37:44.174Z,64.21
2019-03-17T11:40:14.866Z,64.35
2019-03-17T11:42:43.726Z,64.14
2019-03-17T11:45:15.757Z,63.72
2019-03-17T11:47:44.619Z,62.63
2019-03-17T11:50:21.193Z,62.32
2019-03-17T11:52:49.882Z,61.08
2019-03-17T11:55:19.099Z,59.64
2019-03-17T11:57:47.695Z,56.60
2019-03-17T12:00:18.518Z,58.00
2019-03-17T12:02:47.030Z,55.41
2019-03-17T12:05:15.773Z,55.64
2019-03-17T12:07:44.360Z,55.93
2019-03-17T12:10:21.262Z,56.88
2019-03-17T12:12:49.875Z,55.57
2019-03-17T12:15:35.746Z,54.41
2019-03-17T12:18:04.444Z,53.94
2019-03-17T12:20:33.102Z,54.23
2019-03-17T12:23:01.814Z,54.62
2019-03-17T12:25:30.466Z,53.78
2019-03-17T12:27:59.365Z,54.18
2019-03-17T12:30:28.452Z,57.24
2019-03-17T12:32:57.558Z,52.09
2019-03-17T12:35:26.256Z,53.46
2019-03-17T12:37:54.870Z,51.76
2019-03-17T12:40:23.527Z,51.55
2019-03-17T12:42:52.163Z,52.02
2019-03-17T12:45:20.849Z,52.56
2019-03-17T12:47:49.609Z,52.25
2019-03-17T12:50:23.686Z,53.48
2019-03-17T12:52:52.241Z,54.30
2019-03-17T12:55:20.865Z,54.34
2019-03-17T12:57:49.511Z,54.39
2019-03-17T13:00:20.046Z,54.46
2019-03-17T13:02:48.661Z,54.56
2019-03-17T13:05:17.294Z,57.92
2019-03-17T13:07:45.946Z,54.60
2019-03-17T13:10:21.551Z,53.89
2019-03-17T13:12:50.176Z,54.07
2019-03-17T13:15:18.966Z,54.54
2019-03-17T13:17:47.597Z,55.75
2019-03-17T13:20:21.375Z,57.05
2019-03-17T13:22:50.071Z,58.00
2019-03-17T13:25:19.613Z,58.07
2019-03-17T13:27:48.276Z,59.87
2019-03-17T13:30:17.466Z,60.20
2019-03-17T13:32:46.017Z,59.17
2019-03-17T13:35:14.634Z,58.97
2019-03-17T13:37:43.553Z,58.92
2019-03-17T13:40:28.135Z,68.95
2019-03-17T13:42:47.257Z,61.81
2019-03-17T13:45:16.576Z,59.33
2019-03-17T13:47:45.288Z,58.87
2019-03-17T13:50:22.103Z,58.90
2019-03-17T13:52:50.948Z,58.28
2019-03-17T13:55:19.493Z,57.45
2019-03-17T13:57:59.683Z,57.33
2019-03-17T14:00:28.291Z,58.43
2019-03-17T14:02:57.188Z,58.73
2019-03-17T14:05:25.827Z,59.57
2019-03-17T14:07:54.357Z,60.00
2019-03-17T14:10:23.121Z,61.10
2019-03-17T14:12:51.826Z,61.64
2019-03-17T14:15:20.483Z,64.15
2019-03-17T14:17:49.569Z,64.52
2019-03-17T14:20:24.309Z,61.59
2019-03-17T14:22:52.933Z,61.35
2019-03-17T14:25:35.608Z,60.98
2019-03-17T14:28:04.457Z,62.23
2019-03-17T14:30:33.118Z,60.63
2019-03-17T14:33:01.799Z,61.60
2019-03-17T14:35:30.361Z,60.75
2019-03-17T14:37:58.959Z,59.86
2019-03-17T14:40:27.592Z,58.97
2019-03-17T14:42:56.165Z,58.81
2019-03-17T14:45:24.739Z,58.23
2019-03-17T14:47:53.385Z,58.49
2019-03-17T14:50:23.716Z,60.89
2019-03-17T14:52:52.339Z,58.81
2019-03-17T14:55:20.931Z,56.98
2019-03-17T14:57:49.547Z,57.49
2019-03-17T15:00:20.349Z,57.41
2019-03-17T15:02:49.247Z,57.21
2019-03-17T15:05:17.846Z,57.35
2019-03-17T15:07:46.537Z,57.66
2019-03-17T15:10:17.491Z,56.89
2019-03-17T15:12:46.086Z,58.30
2019-03-17T15:15:18.880Z,58.65
2019-03-17T15:17:47.523Z,57.36
2019-03-17T15:20:21.256Z,57.02
2019-03-17T15:22:49.924Z,58.35
2019-03-17T15:25:18.510Z,59.61
2019-03-17T15:27:47.250Z,60.17
2019-03-17T15:30:29.155Z,57.55
2019-03-17T15:32:57.769Z,57.43
2019-03-17T15:35:26.363Z,56.83
2019-03-17T15:37:54.959Z,56.43
2019-03-17T15:40:23.525Z,57.28
2019-03-17T15:42:52.149Z,58.21
2019-03-17T15:45:27.171Z,58.28
2019-03-17T15:47:55.701Z,58.71
2019-03-17T15:50:25.604Z,58.80
2019-03-17T15:52:54.231Z,58.14
2019-03-17T15:55:22.794Z,56.56
2019-03-17T15:57:51.556Z,56.72
2019-03-17T16:00:27.229Z,58.28
2019-03-17T16:02:55.948Z,59.34
2019-03-17T16:05:24.642Z,56.81
2019-03-17T16:07:53.249Z,56.18
2019-03-17T16:10:32.863Z,57.44
2019-03-17T16:13:01.540Z,56.95
2019-03-17T16:15:30.138Z,57.22
2019-03-17T16:17:58.755Z,56.96
2019-03-17T16:20:28.052Z,57.92
2019-03-17T16:22:56.631Z,56.43
2019-03-17T16:25:40.573Z,55.32
2019-03-17T16:28:09.801Z,55.75
2019-03-17T16:30:38.358Z,55.75
2019-03-17T16:33:06.975Z,56.92
2019-03-17T16:35:35.629Z,56.97
2019-03-17T16:38:04.404Z,58.43
2019-03-17T16:40:34.568Z,56.57
2019-03-17T16:43:03.209Z,55.94
2019-03-17T16:45:31.737Z,55.45
2019-03-17T16:48:00.408Z,57.05
2019-03-17T16:50:29.016Z,56.87
2019-03-17T16:52:57.482Z,57.09
2019-03-17T16:55:26.141Z,57.49
2019-03-17T16:57:55.198Z,57.88
2019-03-17T17:00:25.563Z,58.26
2019-03-17T17:02:54.340Z,58.18
2019-03-17T17:05:24.169Z,57.91
2019-03-17T17:07:52.794Z,58.00
2019-03-17T17:10:24.962Z,58.83
2019-03-17T17:12:53.566Z,60.12
2019-03-17T17:15:28.073Z,59.05
2019-03-17T17:17:56.843Z,57.93
2019-03-17T17:20:28.075Z,58.92
2019-03-17T17:22:56.657Z,59.50
2019-03-17T17:25:25.292Z,59.61
2019-03-17T17:27:53.950Z,59.61
2019-03-17T17:30:22.709Z,59.82
2019-03-17T17:32:51.300Z,59.95
2019-03-17T17:35:20.017Z,60.18
2019-03-17T17:37:48.576Z,60.09
2019-03-17T17:40:27.962Z,60.60
2019-03-17T17:42:56.737Z,61.34
2019-03-17T17:45:26.830Z,61.64
2019-03-17T17:47:55.555Z,62.53
2019-03-17T17:50:26.189Z,62.30
2019-03-17T17:52:54.699Z,60.82
2019-03-17T17:55:23.301Z,62.11
2019-03-17T17:57:53.098Z,62.59
2019-03-17T18:00:26.725Z,62.47
2019-03-17T18:02:55.290Z,62.88
2019-03-17T18:05:23.896Z,62.87
2019-03-17T18:07:52.484Z,63.38
2019-03-17T18:10:21.069Z,63.22
2019-03-17T18:12:49.718Z,62.62
2019-03-17T18:15:25.839Z,62.69
2019-03-17T18:17:54.488Z,62.46
2019-03-17T18:20:23.274Z,62.56
2019-03-17T18:22:52.279Z,64.90
2019-03-17T18:25:21.704Z,64.05
2019-03-17T18:27:50.388Z,61.71
2019-03-17T18:30:20.930Z,61.67
2019-03-17T18:32:49.528Z,61.78
2019-03-17T18:35:18.162Z,63.19
2019-03-17T18:37:46.736Z,63.23
2019-03-17T18:40:16.335Z,63.85
2019-03-17T18:42:44.959Z,63.38
2019-03-17T18:45:21.488Z,64.75
2019-03-17T18:47:50.091Z,63.75
2019-03-17T18:50:20.562Z,64.32
2019-03-17T18:52:49.161Z,64.33
2019-03-17T18:55:17.806Z,64.60
2019-03-17T18:57:46.666Z,64.20
2019-03-17T19:00:20.050Z,65.09
2019-03-17T19:02:48.703Z,63.29
2019-03-17T19:05:19.897Z,63.07
2019-03-17T19:07:48.122Z,63.18
2019-03-17T19:10:17.639Z,62.57
2019-03-17T19:12:46.528Z,62.86
2019-03-17T19:15:23.955Z,62.69
2019-03-17T19:17:52.479Z,63.29
2019-03-17T19:20:24.700Z,63.38
2019-03-17T19:22:53.278Z,63.79
2019-03-17T19:25:24.060Z,63.83
2019-03-17T19:27:52.666Z,63.91
2019-03-17T19:30:21.966Z,64.55
2019-03-17T19:32:50.525Z,64.55
2019-03-17T19:35:19.181Z,67.87
2019-03-17T19:37:47.737Z,64.16
2019-03-17T19:40:20.467Z,64.23
2019-03-17T19:42:58.717Z,63.73
2019-03-17T19:45:19.731Z,63.36
2019-03-17T19:47:48.423Z,64.06
2019-03-17T19:50:22.028Z,64.98
2019-03-17T19:52:50.644Z,64.98
2019-03-17T19:55:19.251Z,65.51
2019-03-17T19:57:47.994Z,66.69
2019-03-17T20:00:17.468Z,66.27
2019-03-17T20:02:47.732Z,66.24
2019-03-17T20:05:16.611Z,66.26
2019-03-17T20:07:45.260Z,66.35
2019-03-17T20:10:19.513Z,71.56
2019-03-17T20:12:48.040Z,68.37
2019-03-17T20:15:16.681Z,67.26
2019-03-17T20:17:45.227Z,66.52
2019-03-17T20:20:14.777Z,66.04
2019-03-17T20:22:43.412Z,66.70
2019-03-17T20:25:11.987Z,67.15
2019-03-17T20:27:40.487Z,67.43
2019-03-17T20:30:13.256Z,67.42
2019-03-17T20:32:41.846Z,67.16
2019-03-17T20:35:11.896Z,67.79
2019-03-17T20:37:40.561Z,68.05
2019-03-17T20:40:14.337Z,68.89
2019-03-17T20:42:43.365Z,69.26
2019-03-17T20:45:13.086Z,70.33
2019-03-17T20:47:41.760Z,71.66
2019-03-17T20:50:14.125Z,69.30
2019-03-17T20:52:42.750Z,68.34
2019-03-17T20:55:12.100Z,68.58
2019-03-17T20:57:40.677Z,69.12
2019-03-17T21:00:17.355Z,69.08
2019-03-17T21:02:46.049Z,69.37
2019-03-17T21:05:14.860Z,69.29
2019-03-17T21:07:43.626Z,69.15
2019-03-17T21:10:15.921Z,69.14
2019-03-17T21:12:44.660Z,69.60
2019-03-17T21:15:20.815Z,68.74
2019-03-17T21:17:49.390Z,69.49
2019-03-17T21:20:25.629Z,69.46
2019-03-17T21:22:54.888Z,70.67
2019-03-17T21:25:23.552Z,68.74
2019-03-17T21:27:52.138Z,68.63
2019-03-17T21:30:31.656Z,68.11
2019-03-17T21:33:01.328Z,68.07
2019-03-17T21:35:30.286Z,68.41
2019-03-17T21:37:59.201Z,69.54
2019-03-17T21:40:27.735Z,69.04
2019-03-17T21:42:56.709Z,69.53
2019-03-17T21:45:27.452Z,69.00
2019-03-17T21:47:55.578Z,69.09
2019-03-17T21:50:24.173Z,69.09
2019-03-17T21:52:52.900Z,69.37
2019-03-17T21:55:21.441Z,69.12
2019-03-17T21:57:50.060Z,72.24
2019-03-17T22:00:19.307Z,69.71
2019-03-17T22:02:48.019Z,68.24
2019-03-17T22:05:16.635Z,68.89
2019-03-17T22:07:50.293Z,68.68
2019-03-17T22:10:19.338Z,69.51
2019-03-17T22:12:47.862Z,68.97
2019-03-17T22:15:17.185Z,69.76
2019-03-17T22:17:45.758Z,69.76
2019-03-17T22:20:15.287Z,69.87
2019-03-17T22:22:43.870Z,69.78
2019-03-17T22:25:16.115Z,70.04
2019-03-17T22:27:44.701Z,69.66
2019-03-17T22:30:18.060Z,69.94
2019-03-17T22:32:46.621Z,70.45
2019-03-17T22:35:15.202Z,70.50
2019-03-17T22:37:43.877Z,69.36
2019-03-17T22:40:14.372Z,69.28
2019-03-17T22:42:42.948Z,70.44
2019-03-17T22:45:12.842Z,69.82
2019-03-17T22:47:41.454Z,70.06
2019-03-17T22:50:18.557Z,70.47
2019-03-17T22:52:47.268Z,70.75
2019-03-17T22:55:15.737Z,71.03
2019-03-17T22:57:44.307Z,70.60
2019-03-17T23:00:36.008Z,71.04
2019-03-17T23:03:05.378Z,71.03
2019-03-17T23:05:33.902Z,71.18
2019-03-17T23:08:02.513Z,71.42
2019-03-17T23:10:31.128Z,72.48
2019-03-17T23:12:59.650Z,70.47
2019-03-17T23:15:28.451Z,70.58
2019-03-17T23:17:57.032Z,70.11
2019-03-17T23:20:25.702Z,70.53
2019-03-17T23:22:54.256Z,70.49
2019-03-17T23:25:22.839Z,70.91
2019-03-17T23:27:51.543Z,71.03
2019-03-17T23:30:22.090Z,71.59
2019-03-17T23:32:50.637Z,71.71
2019-03-17T23:35:19.271Z,71.05
2019-03-17T23:37:48.182Z,70.60
2019-03-17T23:40:17.552Z,71.38
2019-03-17T23:42:46.118Z,71.29
2019-03-17T23:45:15.118Z,76.04
2019-03-17T23:47:43.733Z,72.05
2019-03-17T23:50:13.862Z,70.41
2019-03-17T23:52:43.362Z,69.87
2019-03-17T23:55:13.191Z,71.14
2019-03-17T23:57:41.828Z,71.41
